Bayshore Gardens, Florida
Current Conditions -  °F | °C
As of 3:41 AM on Monday 24 Nov 2014 (Local Time) from KSRQ Reporting Station
Haze Haze  
Wind Chill: 75°   Ceiling: 200
Heat Index: 75°   Visibility: 2.5mi
Dew Point: 75°   Wind: 16mph
Humidity: 100%   Direction: 180°S
Pressure: 29.91"   Gusts: 21mph
Location:  27.4402°N, 82.5786°W
Report Text: KSRQ 240841Z 18014G18KT 2 1/2SM BR OVC002 24/24 A2991 RMK AO2 T02390239
Loading
Personal Weather Stations






























Interactive Weather Map New forecast layout! Learn more

10-Day Weather Forecast

Advertisements
Track Severe Weather on mobile